sensor_id;sensor_type;location;lat;lon;timestamp;P1;durP1;ratioP1;P2;durP2;ratioP2
48945;SDS011;34999;50.940;3.998;2024-01-25T00:00:48;66.83;;;9.43;;
48945;SDS011;34999;50.940;3.998;2024-01-25T00:03:17;60.87;;;8.37;;
48945;SDS011;34999;50.940;3.998;2024-01-25T00:05:45;61.27;;;8.50;;
48945;SDS011;34999;50.940;3.998;2024-01-25T00:08:15;64.47;;;8.73;;
48945;SDS011;34999;50.940;3.998;2024-01-25T00:10:44;65.13;;;8.90;;
48945;SDS011;34999;50.940;3.998;2024-01-25T00:13:13;66.70;;;8.50;;
48945;SDS011;34999;50.940;3.998;2024-01-25T00:15:41;62.80;;;8.60;;
48945;SDS011;34999;50.940;3.998;2024-01-25T00:18:10;61.40;;;9.83;;
48945;SDS011;34999;50.940;3.998;2024-01-25T00:20:38;71.53;;;10.10;;
48945;SDS011;34999;50.940;3.998;2024-01-25T00:23:05;59.57;;;8.20;;
48945;SDS011;34999;50.940;3.998;2024-01-25T00:25:34;69.40;;;9.20;;
48945;SDS011;34999;50.940;3.998;2024-01-25T00:28:03;79.77;;;8.67;;
48945;SDS011;34999;50.940;3.998;2024-01-25T00:30:33;71.07;;;9.70;;
48945;SDS011;34999;50.940;3.998;2024-01-25T00:33:01;63.70;;;7.87;;
48945;SDS011;34999;50.940;3.998;2024-01-25T00:35:30;67.33;;;8.93;;
48945;SDS011;34999;50.940;3.998;2024-01-25T00:37:59;70.13;;;8.73;;
48945;SDS011;34999;50.940;3.998;2024-01-25T00:40:28;57.90;;;8.60;;
48945;SDS011;34999;50.940;3.998;2024-01-25T00:42:56;70.13;;;9.30;;
48945;SDS011;34999;50.940;3.998;2024-01-25T00:45:25;55.03;;;9.10;;
48945;SDS011;34999;50.940;3.998;2024-01-25T00:47:55;49.20;;;7.97;;
48945;SDS011;34999;50.940;3.998;2024-01-25T00:50:24;54.03;;;8.07;;
48945;SDS011;34999;50.940;3.998;2024-01-25T00:52:53;60.90;;;8.23;;
48945;SDS011;34999;50.940;3.998;2024-01-25T00:55:22;73.53;;;8.87;;
48945;SDS011;34999;50.940;3.998;2024-01-25T00:57:51;60.60;;;8.67;;
48945;SDS011;34999;50.940;3.998;2024-01-25T01:00:21;55.40;;;7.80;;
48945;SDS011;34999;50.940;3.998;2024-01-25T01:02:50;49.50;;;8.07;;
48945;SDS011;34999;50.940;3.998;2024-01-25T01:05:22;57.90;;;7.63;;
48945;SDS011;34999;50.940;3.998;2024-01-25T01:07:52;60.30;;;8.47;;
48945;SDS011;34999;50.940;3.998;2024-01-25T01:10:20;70.77;;;9.20;;
48945;SDS011;34999;50.940;3.998;2024-01-25T01:12:49;56.57;;;8.67;;
48945;SDS011;34999;50.940;3.998;2024-01-25T01:15:18;66.50;;;8.10;;
48945;SDS011;34999;50.940;3.998;2024-01-25T01:17:46;57.67;;;7.80;;
48945;SDS011;34999;50.940;3.998;2024-01-25T01:20:16;58.70;;;8.30;;
48945;SDS011;34999;50.940;3.998;2024-01-25T01:22:45;63.20;;;8.90;;
48945;SDS011;34999;50.940;3.998;2024-01-25T01:25:14;64.70;;;9.33;;
48945;SDS011;34999;50.940;3.998;2024-01-25T01:27:43;66.47;;;9.23;;
48945;SDS011;34999;50.940;3.998;2024-01-25T01:30:11;63.23;;;9.07;;
48945;SDS011;34999;50.940;3.998;2024-01-25T01:32:39;59.37;;;8.50;;
48945;SDS011;34999;50.940;3.998;2024-01-25T01:35:08;60.10;;;8.13;;
48945;SDS011;34999;50.940;3.998;2024-01-25T01:37:36;54.60;;;8.50;;
48945;SDS011;34999;50.940;3.998;2024-01-25T01:40:06;57.40;;;8.13;;
48945;SDS011;34999;50.940;3.998;2024-01-25T01:42:35;62.67;;;8.57;;
48945;SDS011;34999;50.940;3.998;2024-01-25T01:45:04;54.40;;;8.37;;
48945;SDS011;34999;50.940;3.998;2024-01-25T01:47:33;55.67;;;8.43;;
48945;SDS011;34999;50.940;3.998;2024-01-25T01:50:01;55.80;;;7.90;;
48945;SDS011;34999;50.940;3.998;2024-01-25T01:52:30;66.70;;;9.40;;
48945;SDS011;34999;50.940;3.998;2024-01-25T01:54:58;65.97;;;8.83;;
48945;SDS011;34999;50.940;3.998;2024-01-25T01:57:28;66.13;;;9.10;;
48945;SDS011;34999;50.940;3.998;2024-01-25T01:59:57;68.87;;;9.47;;
48945;SDS011;34999;50.940;3.998;2024-01-25T02:02:30;71.17;;;8.60;;
48945;SDS011;34999;50.940;3.998;2024-01-25T02:04:58;50.00;;;8.37;;
48945;SDS011;34999;50.940;3.998;2024-01-25T02:07:26;52.33;;;7.13;;
48945;SDS011;34999;50.940;3.998;2024-01-25T02:09:55;56.70;;;8.37;;
48945;SDS011;34999;50.940;3.998;2024-01-25T02:12:23;57.07;;;7.13;;
48945;SDS011;34999;50.940;3.998;2024-01-25T02:14:52;56.00;;;8.67;;
48945;SDS011;34999;50.940;3.998;2024-01-25T02:17:21;59.40;;;8.40;;
48945;SDS011;34999;50.940;3.998;2024-01-25T02:19:49;55.33;;;7.43;;
48945;SDS011;34999;50.940;3.998;2024-01-25T02:22:19;59.43;;;8.03;;
48945;SDS011;34999;50.940;3.998;2024-01-25T02:24:47;53.93;;;7.50;;
48945;SDS011;34999;50.940;3.998;2024-01-25T02:27:16;60.83;;;9.20;;
48945;SDS011;34999;50.940;3.998;2024-01-25T02:29:44;55.13;;;8.03;;
48945;SDS011;34999;50.940;3.998;2024-01-25T02:32:12;55.30;;;7.97;;
48945;SDS011;34999;50.940;3.998;2024-01-25T02:34:40;52.57;;;7.57;;
48945;SDS011;34999;50.940;3.998;2024-01-25T02:37:09;50.00;;;7.03;;
48945;SDS011;34999;50.940;3.998;2024-01-25T02:39:40;55.77;;;7.57;;
48945;SDS011;34999;50.940;3.998;2024-01-25T02:42:09;60.03;;;7.63;;
48945;SDS011;34999;50.940;3.998;2024-01-25T02:44:37;63.60;;;7.70;;
48945;SDS011;34999;50.940;3.998;2024-01-25T02:47:05;72.33;;;7.83;;
48945;SDS011;34999;50.940;3.998;2024-01-25T02:49:33;60.50;;;7.77;;
48945;SDS011;34999;50.940;3.998;2024-01-25T02:52:02;46.70;;;7.00;;
48945;SDS011;34999;50.940;3.998;2024-01-25T02:54:34;73.30;;;9.47;;
48945;SDS011;34999;50.940;3.998;2024-01-25T02:57:04;45.17;;;6.43;;
48945;SDS011;34999;50.940;3.998;2024-01-25T02:59:32;49.10;;;7.03;;
48945;SDS011;34999;50.940;3.998;2024-01-25T03:02:01;54.53;;;7.83;;
48945;SDS011;34999;50.940;3.998;2024-01-25T03:04:29;56.27;;;7.37;;
48945;SDS011;34999;50.940;3.998;2024-01-25T03:06:57;65.83;;;7.83;;
48945;SDS011;34999;50.940;3.998;2024-01-25T03:09:26;55.07;;;6.50;;
48945;SDS011;34999;50.940;3.998;2024-01-25T03:11:54;39.33;;;6.63;;
48945;SDS011;34999;50.940;3.998;2024-01-25T03:14:24;60.90;;;8.57;;
48945;SDS011;34999;50.940;3.998;2024-01-25T03:16:52;56.70;;;7.53;;
48945;SDS011;34999;50.940;3.998;2024-01-25T03:19:23;40.80;;;6.33;;
48945;SDS011;34999;50.940;3.998;2024-01-25T03:21:52;50.80;;;7.73;;
48945;SDS011;34999;50.940;3.998;2024-01-25T03:24:21;53.23;;;7.53;;
48945;SDS011;34999;50.940;3.998;2024-01-25T03:26:50;47.73;;;7.33;;
48945;SDS011;34999;50.940;3.998;2024-01-25T03:29:18;52.83;;;7.43;;
48945;SDS011;34999;50.940;3.998;2024-01-25T03:31:48;58.33;;;7.40;;
48945;SDS011;34999;50.940;3.998;2024-01-25T03:34:17;42.67;;;7.30;;
48945;SDS011;34999;50.940;3.998;2024-01-25T03:36:45;55.97;;;7.87;;
48945;SDS011;34999;50.940;3.998;2024-01-25T03:39:13;64.03;;;8.80;;
48945;SDS011;34999;50.940;3.998;2024-01-25T03:41:41;66.73;;;8.40;;
48945;SDS011;34999;50.940;3.998;2024-01-25T03:44:10;50.90;;;8.57;;
48945;SDS011;34999;50.940;3.998;2024-01-25T03:46:38;70.83;;;8.73;;
48945;SDS011;34999;50.940;3.998;2024-01-25T03:49:08;61.17;;;8.00;;
48945;SDS011;34999;50.940;3.998;2024-01-25T03:51:36;61.80;;;8.77;;
48945;SDS011;34999;50.940;3.998;2024-01-25T03:54:04;54.90;;;8.20;;
48945;SDS011;34999;50.940;3.998;2024-01-25T03:56:32;50.97;;;6.97;;
48945;SDS011;34999;50.940;3.998;2024-01-25T03:59:01;57.90;;;7.63;;
48945;SDS011;34999;50.940;3.998;2024-01-25T04:01:29;48.73;;;7.37;;
48945;SDS011;34999;50.940;3.998;2024-01-25T04:03:58;71.03;;;8.60;;
48945;SDS011;34999;50.940;3.998;2024-01-25T04:06:28;69.60;;;8.73;;
48945;SDS011;34999;50.940;3.998;2024-01-25T04:08:56;65.70;;;9.43;;
48945;SDS011;34999;50.940;3.998;2024-01-25T04:11:24;46.03;;;7.37;;
48945;SDS011;34999;50.940;3.998;2024-01-25T04:13:54;59.63;;;8.37;;
48945;SDS011;34999;50.940;3.998;2024-01-25T04:16:22;61.47;;;8.13;;
48945;SDS011;34999;50.940;3.998;2024-01-25T04:18:50;58.93;;;8.53;;
48945;SDS011;34999;50.940;3.998;2024-01-25T04:21:19;56.83;;;8.00;;
48945;SDS011;34999;50.940;3.998;2024-01-25T04:23:49;49.97;;;7.90;;
48945;SDS011;34999;50.940;3.998;2024-01-25T04:26:17;54.80;;;7.60;;
48945;SDS011;34999;50.940;3.998;2024-01-25T04:28:45;50.67;;;7.60;;
48945;SDS011;34999;50.940;3.998;2024-01-25T04:31:13;71.90;;;8.17;;
48945;SDS011;34999;50.940;3.998;2024-01-25T04:33:42;55.60;;;8.20;;
48945;SDS011;34999;50.940;3.998;2024-01-25T04:36:14;49.03;;;8.07;;
48945;SDS011;34999;50.940;3.998;2024-01-25T04:38:42;53.50;;;7.40;;
48945;SDS011;34999;50.940;3.998;2024-01-25T04:41:12;45.00;;;6.83;;
48945;SDS011;34999;50.940;3.998;2024-01-25T04:43:40;55.53;;;7.63;;
48945;SDS011;34999;50.940;3.998;2024-01-25T04:46:08;53.87;;;8.53;;
48945;SDS011;34999;50.940;3.998;2024-01-25T04:48:37;67.40;;;9.37;;
48945;SDS011;34999;50.940;3.998;2024-01-25T04:51:06;58.37;;;9.07;;
48945;SDS011;34999;50.940;3.998;2024-01-25T04:53:35;55.70;;;9.23;;
48945;SDS011;34999;50.940;3.998;2024-01-25T04:56:03;56.87;;;7.80;;
48945;SDS011;34999;50.940;3.998;2024-01-25T04:58:33;58.40;;;8.43;;
48945;SDS011;34999;50.940;3.998;2024-01-25T05:01:02;58.03;;;8.27;;
48945;SDS011;34999;50.940;3.998;2024-01-25T05:03:30;56.90;;;7.97;;
48945;SDS011;34999;50.940;3.998;2024-01-25T05:05:59;69.93;;;8.80;;
48945;SDS011;34999;50.940;3.998;2024-01-25T05:08:27;58.90;;;8.80;;
48945;SDS011;34999;50.940;3.998;2024-01-25T05:10:55;53.17;;;7.70;;
48945;SDS011;34999;50.940;3.998;2024-01-25T05:13:24;56.43;;;8.30;;
48945;SDS011;34999;50.940;3.998;2024-01-25T05:15:54;61.33;;;8.60;;
48945;SDS011;34999;50.940;3.998;2024-01-25T05:18:22;48.17;;;8.03;;
48945;SDS011;34999;50.940;3.998;2024-01-25T05:20:51;61.90;;;8.67;;
48945;SDS011;34999;50.940;3.998;2024-01-25T05:23:20;78.13;;;8.70;;
48945;SDS011;34999;50.940;3.998;2024-01-25T05:25:48;68.33;;;9.10;;
48945;SDS011;34999;50.940;3.998;2024-01-25T05:28:20;60.00;;;9.00;;
48945;SDS011;34999;50.940;3.998;2024-01-25T05:30:48;69.40;;;10.17;;
48945;SDS011;34999;50.940;3.998;2024-01-25T05:33:18;54.73;;;10.00;;
48945;SDS011;34999;50.940;3.998;2024-01-25T05:35:46;61.57;;;8.87;;
48945;SDS011;34999;50.940;3.998;2024-01-25T05:38:14;53.63;;;8.70;;
48945;SDS011;34999;50.940;3.998;2024-01-25T05:40:44;58.57;;;10.20;;
48945;SDS011;34999;50.940;3.998;2024-01-25T05:43:13;68.27;;;9.27;;
48945;SDS011;34999;50.940;3.998;2024-01-25T05:45:41;62.47;;;7.67;;
48945;SDS011;34999;50.940;3.998;2024-01-25T05:48:09;67.30;;;8.67;;
48945;SDS011;34999;50.940;3.998;2024-01-25T05:50:39;67.27;;;8.97;;
48945;SDS011;34999;50.940;3.998;2024-01-25T05:53:08;72.00;;;9.10;;
48945;SDS011;34999;50.940;3.998;2024-01-25T05:55:36;66.20;;;9.03;;
48945;SDS011;34999;50.940;3.998;2024-01-25T05:58:04;45.67;;;7.73;;
48945;SDS011;34999;50.940;3.998;2024-01-25T06:00:32;67.40;;;7.97;;
48945;SDS011;34999;50.940;3.998;2024-01-25T06:03:01;70.17;;;8.53;;
48945;SDS011;34999;50.940;3.998;2024-01-25T06:05:29;63.17;;;8.57;;
48945;SDS011;34999;50.940;3.998;2024-01-25T06:08:00;75.53;;;9.30;;
48945;SDS011;34999;50.940;3.998;2024-01-25T06:10:28;72.40;;;9.03;;
48945;SDS011;34999;50.940;3.998;2024-01-25T06:12:59;56.63;;;8.73;;
48945;SDS011;34999;50.940;3.998;2024-01-25T06:15:28;95.00;;;10.20;;
48945;SDS011;34999;50.940;3.998;2024-01-25T06:17:56;58.50;;;8.40;;
48945;SDS011;34999;50.940;3.998;2024-01-25T06:20:25;52.07;;;8.70;;
48945;SDS011;34999;50.940;3.998;2024-01-25T06:22:53;60.07;;;9.20;;
48945;SDS011;34999;50.940;3.998;2024-01-25T06:25:23;72.77;;;9.60;;
48945;SDS011;34999;50.940;3.998;2024-01-25T06:27:53;67.17;;;10.30;;
48945;SDS011;34999;50.940;3.998;2024-01-25T06:30:22;69.00;;;9.90;;
48945;SDS011;34999;50.940;3.998;2024-01-25T06:32:51;77.83;;;11.80;;
48945;SDS011;34999;50.940;3.998;2024-01-25T06:35:19;64.30;;;10.67;;
48945;SDS011;34999;50.940;3.998;2024-01-25T06:37:48;69.93;;;11.13;;
48945;SDS011;34999;50.940;3.998;2024-01-25T06:40:16;68.63;;;11.97;;
48945;SDS011;34999;50.940;3.998;2024-01-25T06:42:46;65.83;;;12.10;;
48945;SDS011;34999;50.940;3.998;2024-01-25T06:45:14;72.87;;;13.00;;
48945;SDS011;34999;50.940;3.998;2024-01-25T06:47:42;92.17;;;14.90;;
48945;SDS011;34999;50.940;3.998;2024-01-25T06:50:11;63.63;;;13.10;;
48945;SDS011;34999;50.940;3.998;2024-01-25T06:52:39;68.00;;;12.70;;
48945;SDS011;34999;50.940;3.998;2024-01-25T06:55:08;64.90;;;12.43;;
48945;SDS011;34999;50.940;3.998;2024-01-25T06:57:38;80.40;;;14.60;;
48945;SDS011;34999;50.940;3.998;2024-01-25T07:00:09;56.63;;;13.83;;
48945;SDS011;34999;50.940;3.998;2024-01-25T07:02:40;70.80;;;13.27;;
48945;SDS011;34999;50.940;3.998;2024-01-25T07:05:09;66.30;;;13.70;;
48945;SDS011;34999;50.940;3.998;2024-01-25T07:07:37;61.30;;;12.80;;
48945;SDS011;34999;50.940;3.998;2024-01-25T07:10:06;57.43;;;12.13;;
48945;SDS011;34999;50.940;3.998;2024-01-25T07:12:35;67.27;;;13.27;;
48945;SDS011;34999;50.940;3.998;2024-01-25T07:15:04;92.03;;;14.33;;
48945;SDS011;34999;50.940;3.998;2024-01-25T07:17:34;62.17;;;13.10;;
48945;SDS011;34999;50.940;3.998;2024-01-25T07:20:02;68.30;;;12.53;;
48945;SDS011;34999;50.940;3.998;2024-01-25T07:22:33;83.97;;;13.57;;
48945;SDS011;34999;50.940;3.998;2024-01-25T07:25:01;70.67;;;14.17;;
48945;SDS011;34999;50.940;3.998;2024-01-25T07:27:29;73.93;;;12.97;;
48945;SDS011;34999;50.940;3.998;2024-01-25T07:29:57;49.30;;;13.00;;
48945;SDS011;34999;50.940;3.998;2024-01-25T07:32:26;44.57;;;13.60;;
48945;SDS011;34999;50.940;3.998;2024-01-25T07:34:56;49.53;;;12.67;;
48945;SDS011;34999;50.940;3.998;2024-01-25T07:37:24;61.40;;;13.10;;
48945;SDS011;34999;50.940;3.998;2024-01-25T07:39:52;40.87;;;13.00;;
48945;SDS011;34999;50.940;3.998;2024-01-25T07:42:21;45.53;;;13.20;;
48945;SDS011;34999;50.940;3.998;2024-01-25T07:44:49;51.57;;;13.27;;
48945;SDS011;34999;50.940;3.998;2024-01-25T07:47:17;39.57;;;12.20;;
48945;SDS011;34999;50.940;3.998;2024-01-25T07:49:45;37.73;;;12.00;;
48945;SDS011;34999;50.940;3.998;2024-01-25T07:52:15;37.60;;;11.80;;
48945;SDS011;34999;50.940;3.998;2024-01-25T07:54:43;36.97;;;12.70;;
48945;SDS011;34999;50.940;3.998;2024-01-25T07:57:12;50.00;;;13.40;;
48945;SDS011;34999;50.940;3.998;2024-01-25T07:59:40;44.67;;;12.27;;
48945;SDS011;34999;50.940;3.998;2024-01-25T08:02:08;39.87;;;12.93;;
48945;SDS011;34999;50.940;3.998;2024-01-25T08:04:37;58.90;;;12.10;;
48945;SDS011;34999;50.940;3.998;2024-01-25T08:07:05;71.70;;;12.53;;
48945;SDS011;34999;50.940;3.998;2024-01-25T08:09:35;52.30;;;12.70;;
48945;SDS011;34999;50.940;3.998;2024-01-25T08:12:03;63.80;;;13.17;;
48945;SDS011;34999;50.940;3.998;2024-01-25T08:14:32;68.23;;;13.30;;
48945;SDS011;34999;50.940;3.998;2024-01-25T08:17:00;48.50;;;11.83;;
48945;SDS011;34999;50.940;3.998;2024-01-25T08:19:29;47.37;;;12.83;;
48945;SDS011;34999;50.940;3.998;2024-01-25T08:21:57;58.70;;;13.17;;
48945;SDS011;34999;50.940;3.998;2024-01-25T08:24:26;44.97;;;12.37;;
48945;SDS011;34999;50.940;3.998;2024-01-25T08:26:55;40.20;;;12.87;;
48945;SDS011;34999;50.940;3.998;2024-01-25T08:29:23;69.90;;;13.47;;
48945;SDS011;34999;50.940;3.998;2024-01-25T08:31:52;51.50;;;12.47;;
48945;SDS011;34999;50.940;3.998;2024-01-25T08:34:20;76.90;;;13.13;;
48945;SDS011;34999;50.940;3.998;2024-01-25T08:36:48;75.23;;;12.33;;
48945;SDS011;34999;50.940;3.998;2024-01-25T08:39:17;61.93;;;12.40;;
48945;SDS011;34999;50.940;3.998;2024-01-25T08:41:45;54.73;;;12.47;;
48945;SDS011;34999;50.940;3.998;2024-01-25T08:44:16;67.97;;;12.53;;
48945;SDS011;34999;50.940;3.998;2024-01-25T08:46:45;57.77;;;12.47;;
48945;SDS011;34999;50.940;3.998;2024-01-25T08:49:13;73.77;;;14.67;;
48945;SDS011;34999;50.940;3.998;2024-01-25T08:51:41;59.27;;;13.07;;
48945;SDS011;34999;50.940;3.998;2024-01-25T08:54:10;48.70;;;12.67;;
48945;SDS011;34999;50.940;3.998;2024-01-25T08:56:38;64.50;;;13.73;;
48945;SDS011;34999;50.940;3.998;2024-01-25T08:59:06;54.00;;;14.07;;
48945;SDS011;34999;50.940;3.998;2024-01-25T09:01:36;71.47;;;14.40;;
48945;SDS011;34999;50.940;3.998;2024-01-25T09:04:04;56.00;;;13.03;;
48945;SDS011;34999;50.940;3.998;2024-01-25T09:06:33;48.97;;;14.10;;
48945;SDS011;34999;50.940;3.998;2024-01-25T09:09:01;95.97;;;15.80;;
48945;SDS011;34999;50.940;3.998;2024-01-25T09:11:30;71.03;;;14.63;;
48945;SDS011;34999;50.940;3.998;2024-01-25T09:13:58;71.90;;;14.10;;
48945;SDS011;34999;50.940;3.998;2024-01-25T09:16:26;65.57;;;13.90;;
48945;SDS011;34999;50.940;3.998;2024-01-25T09:18:56;66.13;;;13.53;;
48945;SDS011;34999;50.940;3.998;2024-01-25T09:21:24;61.20;;;14.10;;
48945;SDS011;34999;50.940;3.998;2024-01-25T09:23:53;55.93;;;14.17;;
48945;SDS011;34999;50.940;3.998;2024-01-25T09:26:21;64.90;;;14.17;;
48945;SDS011;34999;50.940;3.998;2024-01-25T09:28:49;53.77;;;14.47;;
48945;SDS011;34999;50.940;3.998;2024-01-25T09:31:18;71.37;;;14.50;;
48945;SDS011;34999;50.940;3.998;2024-01-25T09:33:46;58.23;;;14.57;;
48945;SDS011;34999;50.940;3.998;2024-01-25T09:36:17;63.00;;;13.80;;
48945;SDS011;34999;50.940;3.998;2024-01-25T09:38:45;51.90;;;14.23;;
48945;SDS011;34999;50.940;3.998;2024-01-25T09:41:14;60.37;;;14.60;;
48945;SDS011;34999;50.940;3.998;2024-01-25T09:43:42;60.83;;;13.80;;
48945;SDS011;34999;50.940;3.998;2024-01-25T09:46:11;73.33;;;15.17;;
48945;SDS011;34999;50.940;3.998;2024-01-25T09:48:42;55.33;;;15.37;;
48945;SDS011;34999;50.940;3.998;2024-01-25T09:51:13;48.33;;;14.47;;
48945;SDS011;34999;50.940;3.998;2024-01-25T09:53:43;54.27;;;15.40;;
48945;SDS011;34999;50.940;3.998;2024-01-25T09:56:17;47.13;;;14.60;;
48945;SDS011;34999;50.940;3.998;2024-01-25T09:58:49;62.13;;;15.00;;
48945;SDS011;34999;50.940;3.998;2024-01-25T10:01:19;52.63;;;15.70;;
48945;SDS011;34999;50.940;3.998;2024-01-25T10:03:47;65.53;;;16.27;;
48945;SDS011;34999;50.940;3.998;2024-01-25T10:06:16;71.83;;;17.57;;
48945;SDS011;34999;50.940;3.998;2024-01-25T10:08:46;58.70;;;16.70;;
48945;SDS011;34999;50.940;3.998;2024-01-25T10:11:15;55.40;;;16.63;;
48945;SDS011;34999;50.940;3.998;2024-01-25T10:13:44;70.63;;;17.23;;
48945;SDS011;34999;50.940;3.998;2024-01-25T10:16:13;70.97;;;16.83;;
48945;SDS011;34999;50.940;3.998;2024-01-25T10:18:42;67.30;;;16.40;;
48945;SDS011;34999;50.940;3.998;2024-01-25T10:21:12;77.67;;;17.77;;
48945;SDS011;34999;50.940;3.998;2024-01-25T10:23:44;75.23;;;18.30;;
48945;SDS011;34999;50.940;3.998;2024-01-25T10:26:16;73.33;;;16.90;;
48945;SDS011;34999;50.940;3.998;2024-01-25T10:28:50;73.53;;;18.63;;
48945;SDS011;34999;50.940;3.998;2024-01-25T10:31:27;78.60;;;18.47;;
48945;SDS011;34999;50.940;3.998;2024-01-25T10:33:57;75.33;;;19.13;;
48945;SDS011;34999;50.940;3.998;2024-01-25T10:36:27;73.97;;;18.70;;
48945;SDS011;34999;50.940;3.998;2024-01-25T10:38:55;80.63;;;18.37;;
48945;SDS011;34999;50.940;3.998;2024-01-25T10:41:26;74.97;;;17.20;;
48945;SDS011;34999;50.940;3.998;2024-01-25T10:43:55;84.30;;;19.37;;
48945;SDS011;34999;50.940;3.998;2024-01-25T10:46:23;80.33;;;19.57;;
48945;SDS011;34999;50.940;3.998;2024-01-25T10:48:53;87.27;;;19.20;;
48945;SDS011;34999;50.940;3.998;2024-01-25T10:51:25;80.77;;;20.20;;
48945;SDS011;34999;50.940;3.998;2024-01-25T10:53:54;86.53;;;19.27;;
48945;SDS011;34999;50.940;3.998;2024-01-25T10:56:26;92.03;;;19.60;;
48945;SDS011;34999;50.940;3.998;2024-01-25T10:58:55;70.43;;;17.67;;
48945;SDS011;34999;50.940;3.998;2024-01-25T11:01:23;88.80;;;18.77;;
48945;SDS011;34999;50.940;3.998;2024-01-25T11:03:51;76.03;;;17.80;;
48945;SDS011;34999;50.940;3.998;2024-01-25T11:06:21;72.73;;;18.27;;
48945;SDS011;34999;50.940;3.998;2024-01-25T11:08:49;57.00;;;15.23;;
48945;SDS011;34999;50.940;3.998;2024-01-25T11:11:18;72.23;;;16.03;;
48945;SDS011;34999;50.940;3.998;2024-01-25T11:13:49;73.37;;;17.90;;
48945;SDS011;34999;50.940;3.998;2024-01-25T11:16:27;74.23;;;16.97;;
48945;SDS011;34999;50.940;3.998;2024-01-25T11:18:57;73.17;;;15.83;;
48945;SDS011;34999;50.940;3.998;2024-01-25T11:21:39;80.13;;;16.13;;
48945;SDS011;34999;50.940;3.998;2024-01-25T11:24:11;54.30;;;14.63;;
48945;SDS011;34999;50.940;3.998;2024-01-25T11:26:42;56.23;;;15.03;;
48945;SDS011;34999;50.940;3.998;2024-01-25T11:29:13;57.10;;;15.20;;
48945;SDS011;34999;50.940;3.998;2024-01-25T11:31:43;56.37;;;14.87;;
48945;SDS011;34999;50.940;3.998;2024-01-25T11:34:12;65.70;;;14.77;;
48945;SDS011;34999;50.940;3.998;2024-01-25T11:36:42;62.30;;;14.07;;
48945;SDS011;34999;50.940;3.998;2024-01-25T11:39:11;55.23;;;13.37;;
48945;SDS011;34999;50.940;3.998;2024-01-25T11:41:39;56.03;;;12.77;;
48945;SDS011;34999;50.940;3.998;2024-01-25T11:44:08;54.43;;;12.47;;
48945;SDS011;34999;50.940;3.998;2024-01-25T11:46:38;44.60;;;12.97;;
48945;SDS011;34999;50.940;3.998;2024-01-25T11:49:07;45.53;;;11.80;;
48945;SDS011;34999;50.940;3.998;2024-01-25T11:51:35;59.27;;;13.43;;
48945;SDS011;34999;50.940;3.998;2024-01-25T11:54:03;45.73;;;12.70;;
48945;SDS011;34999;50.940;3.998;2024-01-25T11:56:34;38.60;;;11.40;;
48945;SDS011;34999;50.940;3.998;2024-01-25T11:59:07;39.00;;;11.47;;
48945;SDS011;34999;50.940;3.998;2024-01-25T12:01:39;36.37;;;11.47;;
48945;SDS011;34999;50.940;3.998;2024-01-25T12:04:08;30.97;;;10.23;;
48945;SDS011;34999;50.940;3.998;2024-01-25T12:06:37;38.97;;;10.67;;
48945;SDS011;34999;50.940;3.998;2024-01-25T12:09:07;29.63;;;9.30;;
48945;SDS011;34999;50.940;3.998;2024-01-25T12:11:36;30.63;;;9.53;;
48945;SDS011;34999;50.940;3.998;2024-01-25T12:14:04;30.20;;;9.17;;
48945;SDS011;34999;50.940;3.998;2024-01-25T12:16:34;20.33;;;8.43;;
48945;SDS011;34999;50.940;3.998;2024-01-25T12:19:06;30.10;;;9.60;;
48945;SDS011;34999;50.940;3.998;2024-01-25T12:21:35;20.10;;;8.60;;
48945;SDS011;34999;50.940;3.998;2024-01-25T12:24:04;18.30;;;8.63;;
48945;SDS011;34999;50.940;3.998;2024-01-25T12:26:35;22.23;;;9.40;;
48945;SDS011;34999;50.940;3.998;2024-01-25T12:29:03;19.37;;;8.63;;
48945;SDS011;34999;50.940;3.998;2024-01-25T12:31:31;24.43;;;8.33;;
48945;SDS011;34999;50.940;3.998;2024-01-25T12:34:00;19.40;;;7.83;;
48945;SDS011;34999;50.940;3.998;2024-01-25T12:36:30;17.77;;;8.07;;
48945;SDS011;34999;50.940;3.998;2024-01-25T12:39:00;15.27;;;7.80;;
48945;SDS011;34999;50.940;3.998;2024-01-25T12:41:29;17.03;;;7.60;;
48945;SDS011;34999;50.940;3.998;2024-01-25T12:43:58;14.27;;;7.20;;
48945;SDS011;34999;50.940;3.998;2024-01-25T12:46:26;12.23;;;7.17;;
48945;SDS011;34999;50.940;3.998;2024-01-25T12:48:59;9.83;;;6.23;;
48945;SDS011;34999;50.940;3.998;2024-01-25T12:51:31;12.30;;;6.17;;
48945;SDS011;34999;50.940;3.998;2024-01-25T12:53:59;8.33;;;6.03;;
48945;SDS011;34999;50.940;3.998;2024-01-25T12:56:28;10.00;;;6.13;;
48945;SDS011;34999;50.940;3.998;2024-01-25T12:58:57;5.60;;;5.03;;
48945;SDS011;34999;50.940;3.998;2024-01-25T13:01:25;7.50;;;5.17;;
48945;SDS011;34999;50.940;3.998;2024-01-25T13:03:54;10.07;;;5.07;;
48945;SDS011;34999;50.940;3.998;2024-01-25T13:06:22;7.30;;;5.17;;
48945;SDS011;34999;50.940;3.998;2024-01-25T13:08:52;5.90;;;5.33;;
48945;SDS011;34999;50.940;3.998;2024-01-25T13:11:20;10.23;;;5.60;;
48945;SDS011;34999;50.940;3.998;2024-01-25T13:13:48;7.57;;;5.67;;
48945;SDS011;34999;50.940;3.998;2024-01-25T13:16:17;7.53;;;5.27;;
48945;SDS011;34999;50.940;3.998;2024-01-25T13:18:45;10.87;;;5.97;;
48945;SDS011;34999;50.940;3.998;2024-01-25T13:21:14;10.17;;;6.10;;
48945;SDS011;34999;50.940;3.998;2024-01-25T13:23:42;6.20;;;5.40;;
48945;SDS011;34999;50.940;3.998;2024-01-25T13:26:12;8.57;;;6.17;;
48945;SDS011;34999;50.940;3.998;2024-01-25T13:28:40;8.97;;;6.77;;
48945;SDS011;34999;50.940;3.998;2024-01-25T13:31:08;8.80;;;6.73;;
48945;SDS011;34999;50.940;3.998;2024-01-25T13:33:36;11.03;;;7.20;;
48945;SDS011;34999;50.940;3.998;2024-01-25T13:36:05;11.17;;;7.23;;
48945;SDS011;34999;50.940;3.998;2024-01-25T13:38:35;13.60;;;7.80;;
48945;SDS011;34999;50.940;3.998;2024-01-25T13:41:03;12.63;;;8.33;;
48945;SDS011;34999;50.940;3.998;2024-01-25T13:43:33;12.83;;;8.10;;
48945;SDS011;34999;50.940;3.998;2024-01-25T13:46:02;14.37;;;8.77;;
48945;SDS011;34999;50.940;3.998;2024-01-25T13:48:30;14.67;;;9.53;;
48945;SDS011;34999;50.940;3.998;2024-01-25T13:50:58;22.53;;;10.30;;
48945;SDS011;34999;50.940;3.998;2024-01-25T13:53:27;18.27;;;10.03;;
48945;SDS011;34999;50.940;3.998;2024-01-25T13:55:55;16.23;;;10.37;;
48945;SDS011;34999;50.940;3.998;2024-01-25T13:58:23;18.20;;;10.77;;
48945;SDS011;34999;50.940;3.998;2024-01-25T14:00:53;17.40;;;10.43;;
48945;SDS011;34999;50.940;3.998;2024-01-25T14:03:22;16.63;;;11.00;;
48945;SDS011;34999;50.940;3.998;2024-01-25T14:05:50;22.03;;;12.17;;
48945;SDS011;34999;50.940;3.998;2024-01-25T14:08:18;26.50;;;12.80;;
48945;SDS011;34999;50.940;3.998;2024-01-25T14:10:47;20.77;;;12.07;;
48945;SDS011;34999;50.940;3.998;2024-01-25T14:13:15;23.60;;;13.40;;
48945;SDS011;34999;50.940;3.998;2024-01-25T14:15:44;21.83;;;13.13;;
48945;SDS011;34999;50.940;3.998;2024-01-25T14:18:13;23.87;;;13.13;;
48945;SDS011;34999;50.940;3.998;2024-01-25T14:20:42;22.70;;;13.63;;
48945;SDS011;34999;50.940;3.998;2024-01-25T14:23:11;25.93;;;13.73;;
48945;SDS011;34999;50.940;3.998;2024-01-25T14:25:39;23.00;;;13.23;;
48945;SDS011;34999;50.940;3.998;2024-01-25T14:28:07;24.80;;;13.73;;
48945;SDS011;34999;50.940;3.998;2024-01-25T14:30:36;25.47;;;14.13;;
48945;SDS011;34999;50.940;3.998;2024-01-25T14:33:04;25.27;;;12.97;;
48945;SDS011;34999;50.940;3.998;2024-01-25T14:35:34;26.80;;;13.13;;
48945;SDS011;34999;50.940;3.998;2024-01-25T14:38:02;27.60;;;13.53;;